createdAt,value
2018-07-12T00:02:08.283Z,69.73
2018-07-12T00:04:35.686Z,69.89
2018-07-12T00:07:04.526Z,69.36
2018-07-12T00:09:32.491Z,68.43
2018-07-12T00:11:59.882Z,68.46
2018-07-12T00:14:27.297Z,69.29
2018-07-12T00:16:55.551Z,69.19
2018-07-12T00:19:23.588Z,69.96
2018-07-12T00:21:50.994Z,69.63
2018-07-12T00:24:18.386Z,69.94
2018-07-12T00:26:45.971Z,70.68
2018-07-12T00:29:13.766Z,71.50
2018-07-12T00:31:41.138Z,70.74
2018-07-12T00:34:09.115Z,70.88
2018-07-12T00:36:36.512Z,70.36
2018-07-12T00:39:04.974Z,70.74
2018-07-12T00:41:32.382Z,70.98
2018-07-12T00:43:59.770Z,70.99
2018-07-12T00:46:27.211Z,71.18
2018-07-12T00:48:54.885Z,71.18
2018-07-12T00:51:22.287Z,71.10
2018-07-12T00:53:49.661Z,71.24
2018-07-12T00:56:18.276Z,70.64
2018-07-12T00:58:45.998Z,70.72
2018-07-12T01:01:13.735Z,70.15
2018-07-12T01:03:41.098Z,70.69
2018-07-12T01:06:09.014Z,70.98
2018-07-12T01:08:36.847Z,70.70
2018-07-12T01:11:04.239Z,71.68
2018-07-12T01:13:31.641Z,72.71
2018-07-12T01:15:59.987Z,73.34
2018-07-12T01:18:27.838Z,73.52
2018-07-12T01:20:55.205Z,72.51
2018-07-12T01:23:22.586Z,72.43
2018-07-12T01:25:50.537Z,72.73
2018-07-12T01:28:17.974Z,72.38
2018-07-12T01:30:46.879Z,71.91
2018-07-12T01:33:14.371Z,71.61
2018-07-12T01:35:42.823Z,72.55
2018-07-12T01:38:10.229Z,72.25
2018-07-12T01:40:37.789Z,72.61
2018-07-12T01:43:05.164Z,72.49
2018-07-12T01:45:32.543Z,72.07
2018-07-12T01:47:59.995Z,72.72
2018-07-12T01:50:27.377Z,72.39
2018-07-12T01:52:55.139Z,72.63
2018-07-12T01:55:22.500Z,72.82
2018-07-12T01:57:50.669Z,72.65
2018-07-12T02:00:18.061Z,72.58
2018-07-12T02:02:45.655Z,73.15
2018-07-12T02:05:13.071Z,73.04
2018-07-12T02:07:41.210Z,73.33
2018-07-12T02:10:08.578Z,73.83
2018-07-12T02:12:35.985Z,73.60
2018-07-12T02:15:04.437Z,73.95
2018-07-12T02:17:32.323Z,73.78
2018-07-12T02:20:00.764Z,73.23
2018-07-12T02:22:28.179Z,73.06
2018-07-12T02:24:55.592Z,73.05
2018-07-12T02:27:23.437Z,73.48
2018-07-12T02:29:50.827Z,73.08
2018-07-12T02:32:18.237Z,72.46
2018-07-12T02:34:48.303Z,72.91
2018-07-12T02:37:15.839Z,72.66
2018-07-12T02:39:43.218Z,71.84
2018-07-12T02:42:10.642Z,71.70
2018-07-12T02:44:38.038Z,72.45
2018-07-12T02:47:05.495Z,72.56
2018-07-12T02:49:32.891Z,71.32
2018-07-12T02:52:01.043Z,71.32
2018-07-12T02:54:28.440Z,71.40
2018-07-12T02:56:56.592Z,71.86
2018-07-12T02:59:23.999Z,71.36
2018-07-12T03:01:51.382Z,70.95
2018-07-12T03:04:18.786Z,71.71
2018-07-12T03:06:46.814Z,71.94
2018-07-12T03:09:15.320Z,72.35
2018-07-12T03:11:42.687Z,71.21
2018-07-12T03:14:10.097Z,72.40
2018-07-12T03:16:38.083Z,71.76
2018-07-12T03:19:06.350Z,71.92
2018-07-12T03:21:33.725Z,73.11
2018-07-12T03:24:01.878Z,71.45
2018-07-12T03:26:30.060Z,72.10
2018-07-12T03:28:57.442Z,72.39
2018-07-12T03:31:24.806Z,73.23
2018-07-12T03:33:52.638Z,73.06
2018-07-12T03:36:20.045Z,73.44
2018-07-12T03:38:47.442Z,73.82
2018-07-12T03:41:15.237Z,73.98
2018-07-12T03:43:42.648Z,73.83
2018-07-12T03:46:10.091Z,74.27
2018-07-12T03:48:37.502Z,73.17
2018-07-12T03:51:04.943Z,73.60
2018-07-12T03:53:33.372Z,73.82
2018-07-12T03:56:01.174Z,72.86
2018-07-12T03:58:28.569Z,72.58
2018-07-12T04:00:55.971Z,72.88
2018-07-12T04:03:23.418Z,72.11
2018-07-12T04:05:50.804Z,71.68
2018-07-12T04:08:18.881Z,71.70
2018-07-12T04:10:47.237Z,71.41
2018-07-12T04:13:14.747Z,70.99
2018-07-12T04:15:42.190Z,69.78
2018-07-12T04:18:10.167Z,69.47
2018-07-12T04:20:37.574Z,68.99
2018-07-12T04:23:05.446Z,68.60
2018-07-12T04:25:32.841Z,68.90
2018-07-12T04:28:00.798Z,67.93
2018-07-12T04:30:28.209Z,67.71
2018-07-12T04:32:55.590Z,67.23
2018-07-12T04:35:23.315Z,67.22
2018-07-12T04:37:50.791Z,67.66
2018-07-12T04:40:18.124Z,68.19
2018-07-12T04:42:45.841Z,68.83
2018-07-12T04:45:13.238Z,69.02
2018-07-12T04:47:40.683Z,71.26
2018-07-12T04:50:08.138Z,70.80
2018-07-12T04:52:36.150Z,70.55
2018-07-12T04:55:03.513Z,71.27
2018-07-12T04:57:31.281Z,71.46
2018-07-12T04:59:58.646Z,71.24
2018-07-12T05:02:26.028Z,71.76
2018-07-12T05:04:53.437Z,71.34
2018-07-12T05:07:21.199Z,71.23
2018-07-12T05:09:49.245Z,71.56
2018-07-12T05:12:17.100Z,71.33
2018-07-12T05:14:44.476Z,70.70
2018-07-12T05:17:12.298Z,70.44
2018-07-12T05:19:40.054Z,69.64
2018-07-12T05:22:07.877Z,69.27
2018-07-12T05:24:35.248Z,70.08
2018-07-12T05:27:03.220Z,70.18
2018-07-12T05:29:30.614Z,69.55
2018-07-12T05:31:57.980Z,69.07
2018-07-12T05:34:26.082Z,68.91
2018-07-12T05:36:57.714Z,67.81
2018-07-12T05:39:26.571Z,67.45
2018-07-12T05:41:55.364Z,66.49
2018-07-12T05:44:24.120Z,65.56
2018-07-12T05:46:52.972Z,66.65
2018-07-12T05:49:21.788Z,65.98
2018-07-12T05:51:51.379Z,66.52
2018-07-12T05:54:20.961Z,66.65
2018-07-12T05:56:50.551Z,66.42
2018-07-12T05:59:20.258Z,65.75
2018-07-12T06:02:00.066Z,65.11
2018-07-12T06:04:28.818Z,64.86
2018-07-12T06:06:58.231Z,65.24
2018-07-12T06:09:27.903Z,65.48
2018-07-12T06:11:56.686Z,64.51
2018-07-12T06:14:25.481Z,64.84
2018-07-12T06:16:54.767Z,64.53
2018-07-12T06:19:24.990Z,63.57
2018-07-12T06:21:53.798Z,64.10
2018-07-12T06:24:23.042Z,64.24
2018-07-12T06:26:52.618Z,63.90
2018-07-12T06:29:21.635Z,63.82
2018-07-12T06:31:50.878Z,63.57
2018-07-12T06:34:20.394Z,62.22
2018-07-12T06:36:49.382Z,62.58
2018-07-12T06:39:18.295Z,62.28
2018-07-12T06:41:47.096Z,61.72
2018-07-12T06:44:15.885Z,62.05
2018-07-12T06:46:44.806Z,61.65
2018-07-12T06:49:13.616Z,61.22
2018-07-12T06:51:43.398Z,60.03
2018-07-12T06:54:12.181Z,61.27
2018-07-12T06:56:41.664Z,60.81
2018-07-12T06:59:10.406Z,60.44
2018-07-12T07:01:39.511Z,60.11
2018-07-12T07:04:08.318Z,59.78
2018-07-12T07:06:37.834Z,60.03
2018-07-12T07:09:09.142Z,59.95
2018-07-12T07:11:38.365Z,60.00
2018-07-12T07:14:07.204Z,59.57
2018-07-12T07:16:36.691Z,60.39
2018-07-12T07:19:06.115Z,59.83
2018-07-12T07:21:35.064Z,60.54
2018-07-12T07:24:04.858Z,61.00
2018-07-12T07:26:34.302Z,61.38
2018-07-12T07:29:03.110Z,60.63
2018-07-12T07:31:31.979Z,60.60
2018-07-12T07:34:01.494Z,60.40
2018-07-12T07:36:30.297Z,58.93
2018-07-12T07:38:59.089Z,58.96
2018-07-12T07:41:27.906Z,58.30
2018-07-12T07:43:56.715Z,57.56
2018-07-12T07:46:25.631Z,56.86
2018-07-12T07:48:54.492Z,57.09
2018-07-12T07:51:23.872Z,57.36
2018-07-12T07:53:52.719Z,57.51
2018-07-12T07:56:22.619Z,57.01
2018-07-12T07:58:58.129Z,57.81
2018-07-12T08:01:27.047Z,56.29
2018-07-12T08:03:55.845Z,56.13
2018-07-12T08:06:25.322Z,55.58
2018-07-12T08:08:54.552Z,55.63
2018-07-12T08:11:23.410Z,55.21
2018-07-12T08:13:52.336Z,55.39
2018-07-12T08:16:21.703Z,54.78
2018-07-12T08:18:51.544Z,54.95
2018-07-12T08:21:21.151Z,55.04
2018-07-12T08:23:51.671Z,56.01
2018-07-12T08:26:20.758Z,54.92
2018-07-12T08:28:51.518Z,54.09
2018-07-12T08:31:20.730Z,52.76
2018-07-12T08:33:50.378Z,52.19
2018-07-12T08:36:19.459Z,52.29
2018-07-12T08:38:48.299Z,52.33
2018-07-12T08:41:17.143Z,52.15
2018-07-12T08:43:45.902Z,51.98
2018-07-12T08:46:14.813Z,51.98
2018-07-12T08:48:43.580Z,51.31
2018-07-12T08:51:12.390Z,51.44
2018-07-12T08:53:41.863Z,52.00
2018-07-12T08:56:11.451Z,50.66
2018-07-12T08:58:40.213Z,50.08
2018-07-12T09:01:08.995Z,49.99
2018-07-12T09:03:37.893Z,50.33
2018-07-12T09:06:07.716Z,50.28
2018-07-12T09:08:36.926Z,50.28
2018-07-12T09:11:05.700Z,50.06
2018-07-12T09:13:34.442Z,48.57
2018-07-12T09:16:03.570Z,49.03
2018-07-12T09:18:33.021Z,48.85
2018-07-12T09:21:01.803Z,48.08
2018-07-12T09:23:31.217Z,48.10
2018-07-12T09:25:59.955Z,48.26
2018-07-12T09:28:29.331Z,48.01
2018-07-12T09:30:58.174Z,46.91
2018-07-12T09:33:27.690Z,47.54
2018-07-12T09:35:56.471Z,46.95
2018-07-12T09:38:58.258Z,46.74
2018-07-12T09:41:27.026Z,45.94
2018-07-12T09:43:55.967Z,45.98
2018-07-12T09:46:24.766Z,45.71
2018-07-12T09:48:53.621Z,46.58
2018-07-12T09:51:22.681Z,47.05
2018-07-12T09:53:51.740Z,47.25
2018-07-12T09:56:21.962Z,46.64
2018-07-12T09:58:51.008Z,47.00
2018-07-12T10:01:25.413Z,46.10
2018-07-12T10:03:54.698Z,46.32
2018-07-12T10:06:32.152Z,46.44
2018-07-12T10:09:06.638Z,44.85
2018-07-12T10:11:40.494Z,46.13
2018-07-12T10:15:15.689Z,45.48
2018-07-12T10:17:56.427Z,44.49
2018-07-12T10:20:25.809Z,45.95
2018-07-12T10:22:55.330Z,44.81
2018-07-12T10:25:24.199Z,44.77
2018-07-12T10:27:53.994Z,44.48
2018-07-12T10:30:22.753Z,44.01
2018-07-12T10:32:51.614Z,44.21
2018-07-12T10:35:21.284Z,43.53
2018-07-12T10:37:50.389Z,43.15
2018-07-12T10:40:19.927Z,43.38
2018-07-12T10:42:48.937Z,42.69
2018-07-12T10:45:17.837Z,43.42
2018-07-12T10:47:46.727Z,43.48
2018-07-12T10:50:15.710Z,43.90
2018-07-12T10:52:44.943Z,43.25
2018-07-12T10:55:13.671Z,43.59
2018-07-12T10:57:42.885Z,43.83
2018-07-12T11:00:11.655Z,41.27
2018-07-12T11:02:40.422Z,40.90
2018-07-12T11:05:09.216Z,40.91
2018-07-12T11:07:38.755Z,42.06
2018-07-12T11:10:07.516Z,42.97
2018-07-12T11:12:36.259Z,41.98
2018-07-12T11:15:05.084Z,41.18
2018-07-12T11:17:35.143Z,42.70
2018-07-12T11:20:04.694Z,42.33
2018-07-12T11:22:34.148Z,39.52
2018-07-12T11:25:02.926Z,38.85
2018-07-12T11:27:32.233Z,36.71
2018-07-12T11:30:00.971Z,37.69
2018-07-12T11:32:29.713Z,37.83
2018-07-12T11:34:58.976Z,39.04
2018-07-12T11:37:28.521Z,37.43
2018-07-12T11:39:57.278Z,39.13
2018-07-12T11:42:26.103Z,38.30
2018-07-12T11:44:54.855Z,38.12
2018-07-12T11:47:23.714Z,37.01
2018-07-12T11:49:52.794Z,37.25
2018-07-12T11:52:22.564Z,37.14
2018-07-12T11:54:51.570Z,36.48
2018-07-12T11:57:21.683Z,36.96
2018-07-12T11:59:51.296Z,37.42
2018-07-12T12:02:20.494Z,37.02
2018-07-12T12:04:49.742Z,39.34
2018-07-12T12:07:19.549Z,38.34
2018-07-12T12:09:48.648Z,38.77
2018-07-12T12:12:18.515Z,37.63
2018-07-12T12:14:47.272Z,37.43
2018-07-12T12:17:16.954Z,36.28
2018-07-12T12:19:46.202Z,37.67
2018-07-12T12:22:15.971Z,37.92
2018-07-12T12:24:44.734Z,37.37
2018-07-12T12:27:14.241Z,38.36
2018-07-12T12:29:42.977Z,35.13
2018-07-12T12:32:11.768Z,35.75
2018-07-12T12:34:41.397Z,37.05
2018-07-12T12:37:10.241Z,35.90
2018-07-12T12:39:39.002Z,35.58
2018-07-12T12:42:07.839Z,35.46
2018-07-12T12:44:36.630Z,36.74
2018-07-12T12:47:05.527Z,35.74
2018-07-12T12:49:34.321Z,35.45
2018-07-12T12:52:03.708Z,35.04
2018-07-12T12:54:32.470Z,34.44
2018-07-12T12:57:01.915Z,33.43
2018-07-12T12:59:30.676Z,34.03
2018-07-12T13:01:59.507Z,34.20
2018-07-12T13:04:28.273Z,35.59
2018-07-12T13:06:57.719Z,35.20
2018-07-12T13:09:26.462Z,34.22
2018-07-12T13:11:55.981Z,35.32
2018-07-12T13:14:24.749Z,35.49
2018-07-12T13:16:53.974Z,36.96
2018-07-12T13:19:23.302Z,36.17
2018-07-12T13:21:52.164Z,36.50
2018-07-12T13:24:21.727Z,36.20
2018-07-12T13:26:51.420Z,36.07
2018-07-12T13:29:20.792Z,35.33
2018-07-12T13:31:49.833Z,35.29
2018-07-12T13:34:19.782Z,34.44
2018-07-12T13:36:48.833Z,34.87
2018-07-12T13:39:18.210Z,35.45
2018-07-12T13:41:47.043Z,34.85
2018-07-12T13:44:19.824Z,35.29
2018-07-12T13:46:49.788Z,34.59
2018-07-12T13:49:18.862Z,34.65
2018-07-12T13:51:49.906Z,34.22
2018-07-12T13:54:19.489Z,34.91
2018-07-12T13:56:49.833Z,35.09
2018-07-12T13:59:18.743Z,34.61
2018-07-12T14:01:47.647Z,35.12
2018-07-12T14:04:16.500Z,34.33
2018-07-12T14:06:45.990Z,34.84
2018-07-12T14:09:14.739Z,35.39
2018-07-12T14:11:43.464Z,35.07
2018-07-12T14:14:12.914Z,34.75
2018-07-12T14:16:42.689Z,34.96
2018-07-12T14:19:12.260Z,34.15
2018-07-12T14:21:41.070Z,33.46
2018-07-12T14:24:10.567Z,33.10
2018-07-12T14:26:40.112Z,34.65
2018-07-12T14:29:08.955Z,34.92
2018-07-12T14:31:37.711Z,35.05
2018-07-12T14:34:07.560Z,35.10
2018-07-12T14:36:36.316Z,34.93
2018-07-12T14:39:06.842Z,36.01
2018-07-12T14:41:35.685Z,33.68
2018-07-12T14:44:04.467Z,33.21
2018-07-12T14:46:33.362Z,34.66
2018-07-12T14:49:02.358Z,33.99
2018-07-12T14:51:32.414Z,34.17
2018-07-12T14:54:01.222Z,33.46
2018-07-12T14:56:32.013Z,34.58
2018-07-12T14:59:03.588Z,34.75
2018-07-12T15:01:32.436Z,35.03
2018-07-12T15:04:01.188Z,35.21
2018-07-12T15:06:30.559Z,35.76
2018-07-12T15:08:59.377Z,35.31
2018-07-12T15:11:28.158Z,35.74
2018-07-12T15:13:58.067Z,35.66
2018-07-12T15:16:27.308Z,34.26
2018-07-12T15:18:56.736Z,34.68
2018-07-12T15:21:25.511Z,34.87
2018-07-12T15:23:54.981Z,35.02
2018-07-12T15:26:23.748Z,35.70
2018-07-12T15:28:52.992Z,34.54
2018-07-12T15:31:21.731Z,35.36
2018-07-12T15:33:51.319Z,35.37
2018-07-12T15:36:20.558Z,36.91
2018-07-12T15:38:50.364Z,36.10
2018-07-12T15:41:19.571Z,36.41
2018-07-12T15:43:48.762Z,36.43
2018-07-12T15:46:17.663Z,36.91
2018-07-12T15:48:46.515Z,35.02
2018-07-12T15:51:15.324Z,34.23
2018-07-12T15:53:45.027Z,31.19
2018-07-12T15:56:14.414Z,30.22
2018-07-12T15:58:43.276Z,29.17
2018-07-12T16:01:13.299Z,28.41
2018-07-12T16:03:42.085Z,27.01
2018-07-12T16:06:11.427Z,26.48
2018-07-12T16:08:40.190Z,26.20
2018-07-12T16:11:08.956Z,25.55
2018-07-12T16:13:38.272Z,24.96
2018-07-12T16:16:07.690Z,24.36
2018-07-12T16:18:37.298Z,23.80
2018-07-12T16:21:06.192Z,23.71
2018-07-12T16:23:35.549Z,23.98
2018-07-12T16:26:04.338Z,24.03
2018-07-12T16:28:33.586Z,23.14
2018-07-12T16:31:02.683Z,23.10
2018-07-12T16:33:32.166Z,23.53
2018-07-12T16:36:00.977Z,24.11
2018-07-12T16:38:29.766Z,24.04
2018-07-12T16:40:58.611Z,23.42
2018-07-12T16:43:27.457Z,24.07
2018-07-12T16:45:56.337Z,24.35
2018-07-12T16:48:25.546Z,24.11
2018-07-12T16:50:54.350Z,24.00
2018-07-12T16:53:24.296Z,23.35
2018-07-12T16:55:54.138Z,23.02
2018-07-12T16:58:22.965Z,23.21
2018-07-12T17:00:51.765Z,24.11
2018-07-12T17:03:21.423Z,23.83
2018-07-12T17:05:51.568Z,23.84
2018-07-12T17:08:20.587Z,23.01
2018-07-12T17:10:49.606Z,23.31
2018-07-12T17:13:19.676Z,23.88
2018-07-12T17:15:48.674Z,24.77
2018-07-12T17:18:17.579Z,24.86
2018-07-12T17:20:46.417Z,25.06
2018-07-12T17:23:16.010Z,25.07
2018-07-12T17:25:44.819Z,25.13
2018-07-12T17:28:14.509Z,24.37
2018-07-12T17:30:43.315Z,25.20
2018-07-12T17:33:12.150Z,25.11
2018-07-12T17:35:42.440Z,24.99
2018-07-12T17:38:11.215Z,24.54
2018-07-12T17:40:39.969Z,23.99
2018-07-12T17:43:08.822Z,24.86
2018-07-12T17:45:37.617Z,24.93
2018-07-12T17:48:06.616Z,25.04
2018-07-12T17:50:35.449Z,25.53
2018-07-12T17:53:05.376Z,25.53
2018-07-12T17:55:34.643Z,25.25
2018-07-12T17:58:03.406Z,25.72
2018-07-12T18:00:32.250Z,25.49
2018-07-12T18:03:01.587Z,25.71
2018-07-12T18:05:30.508Z,25.77
2018-07-12T18:07:59.906Z,26.41
2018-07-12T18:10:28.730Z,27.52
2018-07-12T18:12:58.542Z,27.08
2018-07-12T18:15:27.372Z,27.29
2018-07-12T18:17:56.167Z,28.52
2018-07-12T18:20:24.989Z,28.16
2018-07-12T18:22:55.139Z,28.27
2018-07-12T18:25:24.031Z,29.20
2018-07-12T18:27:53.398Z,28.74
2018-07-12T18:30:22.222Z,28.51
2018-07-12T18:32:51.098Z,28.92
2018-07-12T18:35:21.428Z,29.05
2018-07-12T18:37:50.413Z,29.45
2018-07-12T18:40:19.595Z,29.25
2018-07-12T18:42:48.605Z,29.86
2018-07-12T18:45:17.517Z,31.70
2018-07-12T18:47:46.468Z,32.03
2018-07-12T18:50:15.283Z,33.90
2018-07-12T18:52:44.818Z,34.86
2018-07-12T18:55:14.027Z,34.57
2018-07-12T18:57:43.486Z,36.13
2018-07-12T19:00:12.239Z,36.96
2018-07-12T19:02:41.581Z,36.77
2018-07-12T19:05:10.385Z,37.41
2018-07-12T19:07:39.709Z,38.33
2018-07-12T19:10:08.478Z,39.21
2018-07-12T19:12:37.739Z,39.04
2018-07-12T19:15:06.613Z,39.75
2018-07-12T19:17:35.325Z,40.46
2018-07-12T19:20:04.451Z,41.11
2018-07-12T19:22:33.872Z,40.57
2018-07-12T19:25:02.611Z,41.16
2018-07-12T19:27:31.794Z,41.54
2018-07-12T19:30:00.533Z,41.82
2018-07-12T19:32:29.297Z,42.08
2018-07-12T19:34:58.771Z,43.30
2018-07-12T19:37:27.479Z,42.79
2018-07-12T19:39:56.230Z,44.86
2018-07-12T19:42:25.048Z,44.76
2018-07-12T19:44:53.795Z,47.27
2018-07-12T19:47:22.754Z,47.65
2018-07-12T19:49:52.056Z,48.50
2018-07-12T19:52:21.806Z,48.90
2018-07-12T19:54:51.462Z,49.70
2018-07-12T19:57:21.362Z,50.02
2018-07-12T19:59:50.414Z,50.70
2018-07-12T20:02:20.606Z,50.77
2018-07-12T20:04:50.306Z,50.72
2018-07-12T20:07:20.212Z,51.30
2018-07-12T20:09:49.355Z,52.22
2018-07-12T20:12:19.214Z,53.04
2018-07-12T20:14:48.283Z,53.07
2018-07-12T20:17:17.094Z,52.63
2018-07-12T20:19:45.858Z,52.66
2018-07-12T20:22:15.066Z,54.63
2018-07-12T20:24:43.777Z,54.45
2018-07-12T20:27:13.775Z,54.86
2018-07-12T20:29:42.560Z,55.38
2018-07-12T20:32:11.322Z,55.42
2018-07-12T20:34:40.770Z,55.34
2018-07-12T20:37:09.592Z,55.20
2018-07-12T20:39:38.320Z,55.31
2018-07-12T20:42:07.090Z,55.81
2018-07-12T20:44:35.847Z,55.66
2018-07-12T20:47:04.686Z,56.17
2018-07-12T20:49:33.648Z,57.72
2018-07-12T20:52:04.206Z,57.29
2018-07-12T20:54:33.799Z,58.42
2018-07-12T20:57:03.323Z,57.59
2018-07-12T20:59:32.103Z,58.88
2018-07-12T21:02:00.879Z,58.99
2018-07-12T21:04:30.474Z,59.24
2018-07-12T21:06:59.642Z,59.55
2018-07-12T21:09:28.373Z,58.92
2018-07-12T21:11:57.134Z,59.27
2018-07-12T21:14:25.910Z,60.25
2018-07-12T21:16:54.664Z,59.57
2018-07-12T21:19:23.527Z,60.35
2018-07-12T21:21:52.520Z,60.95
2018-07-12T21:24:21.972Z,60.12
2018-07-12T21:26:51.564Z,60.14
2018-07-12T21:29:20.694Z,60.55
2018-07-12T21:31:49.834Z,59.95
2018-07-12T21:34:20.684Z,60.06
2018-07-12T21:36:49.904Z,61.47
2018-07-12T21:39:20.308Z,61.65
2018-07-12T21:41:49.791Z,61.63
2018-07-12T21:44:19.659Z,61.78
2018-07-12T21:46:48.948Z,61.50
2018-07-12T21:49:18.115Z,61.32
2018-07-12T21:51:49.091Z,62.12
2018-07-12T21:54:18.085Z,61.84
2018-07-12T21:56:49.199Z,62.57
2018-07-12T21:59:18.231Z,62.69
2018-07-12T22:01:47.061Z,63.29
2018-07-12T22:04:16.412Z,63.07
2018-07-12T22:06:58.220Z,63.54
2018-07-12T22:09:27.046Z,63.79
2018-07-12T22:11:55.845Z,64.48
2018-07-12T22:14:24.679Z,64.14
2018-07-12T22:16:53.541Z,65.39
2018-07-12T22:19:22.330Z,64.15
2018-07-12T22:21:52.061Z,64.46
2018-07-12T22:24:21.786Z,64.69
2018-07-12T22:26:51.598Z,65.45
2018-07-12T22:29:21.186Z,64.84
2018-07-12T22:31:50.708Z,64.76
2018-07-12T22:34:20.632Z,65.61
2018-07-12T22:36:50.146Z,65.75
2018-07-12T22:39:19.086Z,65.64
2018-07-12T22:41:47.963Z,65.32
2018-07-12T22:44:16.702Z,66.39
2018-07-12T22:46:45.566Z,67.13
2018-07-12T22:49:15.432Z,66.27
2018-07-12T22:51:45.363Z,66.96
2018-07-12T22:54:14.095Z,67.26
2018-07-12T22:56:43.756Z,66.55
2018-07-12T22:59:12.611Z,66.71
2018-07-12T23:01:41.368Z,67.23
2018-07-12T23:04:10.735Z,67.83
2018-07-12T23:06:40.165Z,67.95
2018-07-12T23:09:08.907Z,67.92
2018-07-12T23:11:37.650Z,67.49
2018-07-12T23:14:06.446Z,67.50
2018-07-12T23:16:35.292Z,67.21
2018-07-12T23:19:04.166Z,68.02
2018-07-12T23:21:32.965Z,67.32
2018-07-12T23:24:02.964Z,67.44
2018-07-12T23:26:32.666Z,68.05
2018-07-12T23:29:01.384Z,67.03
2018-07-12T23:31:30.137Z,67.61
2018-07-12T23:33:59.640Z,67.64
2018-07-12T23:36:28.380Z,67.83
2018-07-12T23:38:57.122Z,67.79
2018-07-12T23:41:25.910Z,69.14
2018-07-12T23:43:54.646Z,69.08
2018-07-12T23:46:23.493Z,69.83
2018-07-12T23:48:52.424Z,69.35
2018-07-12T23:51:21.451Z,69.79
2018-07-12T23:53:51.058Z,69.48
2018-07-12T23:56:22.100Z,70.03
2018-07-12T23:58:51.814Z,69.79
